Latest Weather Observations for St Lawrence

IDQ60801

Issued at 11:35 am EST Thursday 23 October 2014 (issued every 30 minutes, with the page automatically refreshed every 10 minutes)

About weather observations | Map of weather stations | Latest weather observations for QLD | Other Formats
Station Details ID: 033210 Name: ST LAWRENCE Lat: -22.35 Lon: 149.52 Height: 9.19 m
Data from the previous 72 hours. | See also: Recent months at St Lawrence
Date/Time
EST
Temp
°C
App
Temp
°C
Dew
Point
Rel
Hum
%
Delta-T
°C
Wind Press
QNH
hPa
Press
MSL
hPa
Rain
since 9 am
mm
Dir
 
Spd
km/h
Gust
km/h
Spd
kts
Gust
kts
23/11:30am 28.7 26.5 10.8 33 10.2 ENE 13 24 7 13 1019.1 1019.1 0.0
23/11:00am 27.6 25.8 10.8 35 9.5 E 11 20 6 11 1019.4 1019.4 0.0
23/10:30am 26.9 25.1 11.0 37 9.0 E 11 20 6 11 1020.0 1020.0 0.0
23/10:00am 25.7 24.2 10.7 39 8.4 E 9 22 5 12 1020.4 1020.4 0.0
23/09:30am 25.8 24.9 13.6 47 7.2 E 11 20 6 11 1020.7 1020.7 0.0
23/09:00am 24.3 23.0 13.8 52 6.1 SE 13 20 7 11 1020.9 1020.9 0.0
23/08:30am 23.5 21.8 13.7 54 5.7 SE 15 22 8 12 1021.1 1021.1 0.0
23/08:00am 22.4 21.8 14.5 61 4.6 SE 11 15 6 8 1021.1 1021.1 0.0
23/07:30am 21.3 20.4 14.9 67 3.8 S 13 19 7 10 1021.0 1021.0 0.0
23/07:00am 19.3 18.8 14.8 75 2.6 S 11 17 6 9 1020.9 1020.9 0.0
23/06:30am 17.0 16.5 13.9 82 1.8 S 9 11 5 6 1020.7 1020.7 0.0
23/06:00am 15.4 14.6 12.9 85 1.4 S 9 11 5 6 1020.6 1020.6 0.0
23/05:30am 15.1 14.5 12.4 84 1.5 S 7 9 4 5 1020.3 1020.3 0.0
23/05:00am 15.3 14.3 12.4 83 1.6 S 9 11 5 6 1020.3 1020.3 0.0
23/04:30am 15.3 14.8 12.6 84 1.5 S 7 9 4 5 1019.9 1019.9 0.0
23/04:00am 15.2 14.8 12.9 86 1.3 S 7 9 4 5 1019.8 1019.8 0.0
23/03:30am 14.1 14.2 11.6 85 1.3 SSW 2 7 1 4 1019.9 1019.9 0.0
23/03:00am 14.7 14.2 12.2 85 1.4 S 6 7 3 4 1020.0 1020.0 0.0
23/02:30am 15.0 15.0 12.3 84 1.5 SSW 4 6 2 3 1020.1 1020.1 0.0
23/02:00am 15.4 16.2 12.7 84 1.5 CALM 0 0 0 0 1020.2 1020.2 0.0
23/01:30am 15.4 14.8 11.8 79 1.9 SW 6 6 3 3 1020.6 1020.6 0.0
23/01:00am 17.3 17.0 13.4 78 2.2 S 7 7 4 4 1021.0 1021.0 0.0
23/12:30am 17.4 17.2 12.9 75 2.5 S 6 7 3 4 1021.3 1021.3 0.0
23/12:00am 17.8 18.0 13.1 74 2.6 SSW 4 7 2 4 1021.4 1021.4 0.0
 
Date/Time
EST
Temp
°C
App
Temp
°C
Dew
Point
Rel
Hum
%
Delta-T
°C
Wind Press
QNH
hPa
Press
MSL
hPa
Rain
since 9 am
mm
Dir
 
Spd
km/h
Gust
km/h
Spd
kts
Gust
kts
22/11:30pm 18.2 19.1 12.9 71 3.0 CALM 0 0 0 0 1021.6 1021.6 0.0
22/11:00pm 19.2 20.1 12.9 67 3.5 CALM 0 0 0 0 1021.7 1021.7 0.0
22/10:30pm 20.4 20.7 13.4 64 4.0 SE 4 7 2 4 1021.6 1021.6 0.0
22/10:00pm 21.0 20.7 13.2 61 4.4 ESE 7 11 4 6 1021.5 1021.5 0.0
22/09:30pm 21.9 20.8 13.0 57 5.1 E 11 17 6 9 1021.3 1021.3 0.0
22/09:00pm 22.3 21.2 13.1 56 5.3 E 11 20 6 11 1021.2 1021.2 0.0
22/08:30pm 21.9 21.0 13.8 60 4.7 E 11 19 6 10 1020.9 1020.9 0.0
22/08:00pm 22.1 21.1 14.5 62 4.5 ENE 13 20 7 11 1020.8 1020.8 0.0
22/07:30pm 22.4 21.8 14.5 61 4.6 ENE 11 20 6 11 1020.4 1020.4 0.0
22/07:00pm 22.9 21.6 14.7 60 4.8 ENE 15 26 8 14 1020.2 1020.2 0.0
22/06:30pm 23.4 21.8 14.9 59 5.1 NE 17 22 9 12 1019.7 1019.7 0.0
22/06:00pm 24.0 22.4 15.0 57 5.4 NE 17 24 9 13 1019.4 1019.4 0.0
22/05:30pm 24.5 22.7 16.0 59 5.2 NE 20 28 11 15 1019.0 1019.0 0.0
22/05:00pm 26.0 24.8 17.1 58 5.5 NNE 19 30 10 16 1018.6 1018.6 0.0
22/04:30pm 26.4 24.5 15.8 52 6.5 N 20 28 11 15 1018.3 1018.3 0.0
22/04:00pm 27.0 25.1 15.7 50 6.9 N 20 28 11 15 1018.1 1018.1 0.0
22/03:30pm 27.7 25.7 15.0 45 7.7 NNE 19 22 10 12 1017.9 1017.9 0.0
22/03:00pm 28.4 26.2 14.3 42 8.5 NNE 19 28 10 15 1018.0 1018.0 0.0
22/02:30pm 28.2 26.3 15.1 44 8.0 NNE 19 26 10 14 1018.2 1018.2 0.0
22/02:00pm 27.4 25.7 15.7 48 7.1 NNE 19 30 10 16 1018.6 1018.6 0.0
22/01:30pm 27.6 24.9 14.6 45 7.8 NNE 22 30 12 16 1018.9 1018.9 0.0
22/01:00pm 27.5 25.8 14.8 45 7.7 NE 17 24 9 13 1019.3 1019.3 0.0
22/12:30pm 28.2 27.0 14.1 42 8.4 ENE 13 20 7 11 1019.8 1019.8 0.0
22/12:00pm 28.2 27.8 15.1 44 7.9 E 11 22 6 12 1020.3 1020.3 0.0
22/11:30am 27.7 26.7 14.7 45 7.8 ESE 13 30 7 16 1020.9 1020.9 0.0
22/11:00am 26.5 25.4 14.3 47 7.3 E 13 22 7 12 1021.5 1021.5 0.0
22/10:30am 27.3 26.7 15.6 48 7.1 E 13 22 7 12 1021.9 1021.9 0.0
22/10:00am 25.3 24.8 15.0 53 6.2 E 11 20 6 11 1022.2 1022.2 0.0
22/09:30am 25.0 24.8 15.6 56 5.7 SE 11 15 6 8 1022.5 1022.5 0.0
22/09:00am 23.8 23.6 15.8 61 4.8 SE 11 17 6 9 1022.6 1022.6 0.0
22/08:30am 23.8 24.0 15.8 61 4.8 SSE 9 17 5 9 1022.8 1022.8 0.0
22/08:00am 22.9 23.3 16.4 67 3.9 S 9 15 5 8 1022.6 1022.6 0.0
22/07:30am 21.3 21.1 15.6 70 3.4 S 11 17 6 9 1022.7 1022.7 0.0
22/07:00am 20.6 20.5 14.9 70 3.3 S 9 13 5 7 1022.5 1022.5 0.0
22/06:30am 18.8 18.8 14.3 75 2.6 S 7 13 4 7 1022.4 1022.4 0.0
22/06:00am 18.0 18.0 14.1 78 2.2 S 7 9 4 5 1022.0 1022.0 0.0
22/05:30am 16.3 16.0 12.8 80 1.9 S 6 9 3 5 1021.7 1021.7 0.0
22/05:00am 17.1 16.8 13.2 78 2.2 S 7 11 4 6 1021.3 1021.3 0.0
22/04:30am 17.4 16.7 13.1 76 2.4 S 9 11 5 6 1021.4 1021.4 0.0
22/04:00am 17.9 17.2 13.2 74 2.6 S 9 13 5 7 1021.4 1021.4 0.0
22/03:30am 17.5 16.6 12.6 73 2.7 S 9 13 5 7 1021.4 1021.4 0.0
22/03:00am 18.3 17.5 13.0 71 3.0 S 9 13 5 7 1021.4 1021.4 0.0
22/02:30am 17.9 17.1 13.0 73 2.7 S 9 11 5 6 1021.7 1021.7 0.0
22/02:00am 17.3 16.8 12.6 74 2.6 S 7 9 4 5 1021.9 1021.9 0.0
22/01:30am 17.3 16.8 12.6 74 2.6 S 7 9 4 5 1022.2 1022.2 0.0
22/01:00am 17.7 17.2 12.8 73 2.7 S 7 11 4 6 1022.6 1022.6 0.0
22/12:30am 19.4 19.3 13.8 70 3.2 ESE 7 9 4 5 1023.0 1023.0 0.0
22/12:00am 19.9 19.8 13.8 68 3.5 SE 7 11 4 6 1023.4 1023.4 0.0
 
Date/Time
EST
Temp
°C
App
Temp
°C
Dew
Point
Rel
Hum
%
Delta-T
°C
Wind Press
QNH
hPa
Press
MSL
hPa
Rain
since 9 am
mm
Dir
 
Spd
km/h
Gust
km/h
Spd
kts
Gust
kts
21/11:30pm 20.2 19.7 13.9 67 3.6 ESE 9 19 5 10 1023.7 1023.7 0.0
21/11:00pm 20.2 19.7 13.9 67 3.6 ESE 9 15 5 8 1023.8 1023.8 0.0
21/10:30pm 20.6 20.1 13.8 65 3.9 E 9 15 5 8 1023.8 1023.8 0.0
21/10:00pm 21.0 19.8 13.9 64 4.1 E 13 24 7 13 1024.0 1024.0 0.0
21/09:30pm 21.1 19.8 13.8 63 4.2 E 13 20 7 11 1023.7 1023.7 0.0
21/09:00pm 21.3 20.3 13.5 61 4.5 E 11 22 6 12 1023.5 1023.5 0.0
21/08:30pm 21.4 20.1 13.6 61 4.5 E 13 20 7 11 1023.3 1023.3 0.0
21/08:00pm 22.1 20.7 14.5 62 4.4 E 15 28 8 15 1022.9 1022.9 0.0
21/07:30pm 22.4 22.2 14.8 62 4.5 ENE 9 19 5 10 1022.5 1022.5 0.0
21/07:00pm 22.8 22.7 14.9 61 4.7 ENE 9 15 5 8 1022.1 1022.1 0.0
21/06:30pm 23.5 22.9 14.5 57 5.3 E 11 19 6 10 1021.8 1021.8 0.0
21/06:00pm 24.2 24.0 14.6 55 5.7 E 9 20 5 11 1021.4 1021.4 0.0
21/05:30pm 25.0 23.1 14.2 51 6.4 ENE 17 28 9 15 1020.9 1020.9 0.0
21/05:00pm 25.9 23.0 14.1 48 7.0 ENE 22 32 12 17 1020.5 1020.5 0.0
21/04:30pm 26.9 24.5 14.3 46 7.5 ENE 20 32 11 17 1020.1 1020.1 0.0
21/04:00pm 27.5 24.9 13.8 43 8.1 ENE 20 33 11 18 1019.9 1019.9 0.0
21/03:30pm 27.8 23.9 13.3 40 8.6 NE 26 39 14 21 1019.7 1019.7 0.0
21/03:00pm 27.5 23.5 14.2 44 7.9 NE 28 39 15 21 1019.8 1019.8 0.0
21/02:30pm 27.8 23.8 13.0 40 8.7 NE 26 35 14 19 1020.0 1020.0 0.0
21/02:00pm 28.0 24.0 13.1 39 8.8 NNE 26 37 14 20 1020.3 1020.3 0.0
21/01:30pm 28.4 25.4 11.9 36 9.5 NE 19 32 10 17 1020.5 1020.5 0.0
21/01:00pm 28.0 25.0 12.0 37 9.2 NE 19 35 10 19 1021.0 1021.0 0.0
21/12:30pm 28.6 26.9 14.8 43 8.4 NE 17 39 9 21 1021.5 1021.5 0.0
21/12:00pm 28.1 27.0 15.4 46 7.7 ENE 15 20 8 11 1022.0 1022.0 0.0
21/11:30am 26.1 23.8 14.2 48 7.1 NE 19 28 10 15 1022.5 1022.5 0.0
21/11:00am 26.7 25.3 14.5 47 7.3 E 15 24 8 13 1022.9 1022.9 0.0
21/10:30am 25.7 24.0 13.5 46 7.2 ESE 15 26 8 14 1023.2 1023.2 0.0
21/10:00am 26.5 24.4 13.6 45 7.6 ESE 17 24 9 13 1023.2 1023.2 0.0
21/09:30am 24.7 22.6 13.6 50 6.5 ESE 17 32 9 17 1023.6 1023.6 0.0
21/09:00am 24.6 22.4 13.2 49 6.6 ESE 17 28 9 15 1023.6 1023.6 0.0
21/08:30am 24.4 23.4 14.5 54 5.9 SE 13 22 7 12 1023.6 1023.6 0.0
21/08:00am 22.6 21.6 14.7 61 4.6 S 13 20 7 11 1023.5 1023.5 0.0
21/07:30am 20.5 18.7 14.4 68 3.6 S 17 20 9 11 1023.3 1023.3 0.0
21/07:00am 18.9 17.3 14.0 73 2.8 S 15 20 8 11 1023.1 1023.1 0.0
21/06:30am 17.8 16.6 13.9 78 2.2 S 13 17 7 9 1022.8 1022.8 0.0
21/06:00am 16.4 15.4 13.3 82 1.7 S 11 15 6 8 1022.4 1022.4 0.0
21/05:30am 15.4 14.6 12.9 85 1.4 S 9 13 5 7 1022.2 1022.2 0.0
21/05:00am 15.5 14.7 12.8 84 1.5 S 9 11 5 6 1021.9 1021.9 0.0
21/04:30am 16.3 15.7 13.4 83 1.6 S 9 13 5 7 1021.4 1021.4 0.0
21/04:00am 15.9 15.2 13.2 84 1.5 S 9 11 5 6 1021.1 1021.1 0.0
21/03:30am 16.0 15.3 13.3 84 1.5 S 9 13 5 7 1020.9 1020.9 0.0
21/03:00am 16.1 15.4 13.2 83 1.6 S 9 13 5 7 1021.1 1021.1 0.0
21/02:30am 16.4 15.4 13.3 82 1.7 S 11 15 6 8 1021.1 1021.1 0.0
21/02:00am 16.5 15.6 13.6 83 1.6 S 11 15 6 8 1021.3 1021.3 0.0
21/01:30am 16.5 15.9 13.6 83 1.6 S 9 15 5 8 1021.6 1021.6 0.0
21/01:00am 17.0 16.5 13.9 82 1.8 S 9 13 5 7 1021.9 1021.9 0.0
21/12:30am 17.2 17.1 13.9 81 1.9 S 7 11 4 6 1022.3 1022.3 0.0
21/12:00am 17.6 17.6 13.7 78 2.2 SE 6 7 3 4 1022.4 1022.4 0.0
 
Date/Time
EST
Temp
°C
App
Temp
°C
Dew
Point
Rel
Hum
%
Delta-T
°C
Wind Press
QNH
hPa
Press
MSL
hPa
Rain
since 9 am
mm
Dir
 
Spd
km/h
Gust
km/h
Spd
kts
Gust
kts
20/11:30pm 18.2 18.2 14.3 78 2.2 SE 7 9 4 5 1022.6 1022.6 0.0
20/11:00pm 18.7 18.8 13.8 73 2.8 SE 6 7 3 4 1023.0 1023.0 0.0
20/10:30pm 19.7 20.0 14.5 72 3.0 ESE 6 9 3 5 1023.2 1023.2 0.0
20/10:00pm 20.3 20.0 14.4 69 3.4 E 9 11 5 6 1023.3 1023.3 0.0
20/09:30pm 20.7 20.8 14.4 67 3.7 E 7 11 4 6 1023.4 1023.4 0.0
20/09:00pm 21.2 21.0 14.6 66 3.9 ENE 9 13 5 7 1023.2 1023.2 0.0
20/08:30pm 21.3 21.1 14.7 66 3.9 E 9 19 5 10 1022.6 1022.6 0.0
20/08:00pm 21.8 20.9 14.9 65 4.1 ENE 13 24 7 13 1021.9 1021.9 0.0
20/07:30pm 22.2 21.3 14.8 63 4.4 ENE 13 20 7 11 1021.5 1021.5 0.0
20/07:00pm 22.7 21.7 14.5 60 4.8 NE 13 20 7 11 1020.9 1020.9 0.0
20/06:30pm 23.3 22.1 14.0 56 5.4 ENE 13 19 7 10 1020.5 1020.5 0.0
20/06:00pm 23.6 22.7 15.9 62 4.6 NNE 15 20 8 11 1020.1 1020.1 0.0
20/05:30pm 24.4 22.6 15.6 58 5.3 NE 19 26 10 14 1019.6 1019.6 0.0
20/05:00pm 24.9 23.0 15.8 57 5.5 NNE 20 30 11 16 1019.3 1019.3 0.0
20/04:30pm 25.9 23.8 15.3 52 6.4 NNE 20 28 11 15 1018.9 1018.9 0.0
20/04:00pm 25.9 23.2 14.7 50 6.7 NNE 22 32 12 17 1018.7 1018.7 0.0
20/03:30pm 27.1 25.1 15.5 49 7.1 NNE 20 28 11 15 1018.6 1018.6 0.0
20/03:00pm 26.2 24.0 15.0 50 6.7 NNE 20 32 11 17 1018.5 1018.5 0.0
20/02:30pm 27.3 25.0 14.7 46 7.6 NNE 20 32 11 17 1018.7 1018.7 0.0
20/02:00pm 27.9 24.9 12.7 39 8.9 NNE 20 32 11 17 1018.8 1018.8 0.0
20/01:30pm 28.3 24.3 11.8 36 9.5 NNE 24 35 13 19 1019.2 1019.2 0.0
20/01:00pm 28.0 24.9 13.5 41 8.6 NNE 22 32 12 17 1019.8 1019.8 0.0
20/12:30pm 28.8 26.6 12.2 35 9.7 ENE 15 24 8 13 1020.4 1020.4 0.0
20/12:00pm 27.7 24.6 10.4 34 9.7 ENE 17 30 9 16 1021.1 1021.1 0.0

Other Formats:

Comma delimited format used in spreadsheet applications
http://www.bom.gov.au/fwo/IDQ60801/IDQ60801.95369.axf

JavaScript Object Notation format (JSON) in row-major order
http://www.bom.gov.au/fwo/IDQ60801/IDQ60801.95369.json